sensor_id;sensor_type;location;lat;lon;timestamp;P1;durP1;ratioP1;P2;durP2;ratioP2
18738;SDS011;9498;51.862;19.460;2022-08-21T00:01:51;26.87;;;14.23;;
18738;SDS011;9498;51.862;19.460;2022-08-21T00:04:18;29.57;;;13.73;;
18738;SDS011;9498;51.862;19.460;2022-08-21T00:06:47;28.97;;;13.63;;
18738;SDS011;9498;51.862;19.460;2022-08-21T00:09:15;27.13;;;12.63;;
18738;SDS011;9498;51.862;19.460;2022-08-21T00:11:42;27.07;;;12.50;;
18738;SDS011;9498;51.862;19.460;2022-08-21T00:14:10;25.70;;;11.57;;
18738;SDS011;9498;51.862;19.460;2022-08-21T00:16:38;22.63;;;10.23;;
18738;SDS011;9498;51.862;19.460;2022-08-21T00:19:05;19.63;;;9.17;;
18738;SDS011;9498;51.862;19.460;2022-08-21T00:21:33;23.30;;;9.40;;
18738;SDS011;9498;51.862;19.460;2022-08-21T00:24:02;23.83;;;10.23;;
18738;SDS011;9498;51.862;19.460;2022-08-21T00:26:30;24.30;;;9.30;;
18738;SDS011;9498;51.862;19.460;2022-08-21T00:28:57;20.03;;;9.57;;
18738;SDS011;9498;51.862;19.460;2022-08-21T00:31:24;21.77;;;9.60;;
18738;SDS011;9498;51.862;19.460;2022-08-21T00:33:52;17.60;;;8.87;;
18738;SDS011;9498;51.862;19.460;2022-08-21T00:36:19;18.97;;;9.07;;
18738;SDS011;9498;51.862;19.460;2022-08-21T00:38:46;20.17;;;8.37;;
18738;SDS011;9498;51.862;19.460;2022-08-21T00:41:15;23.93;;;8.70;;
18738;SDS011;9498;51.862;19.460;2022-08-21T00:43:42;18.00;;;8.60;;
18738;SDS011;9498;51.862;19.460;2022-08-21T00:46:10;22.50;;;8.93;;
18738;SDS011;9498;51.862;19.460;2022-08-21T00:48:37;20.30;;;9.13;;
18738;SDS011;9498;51.862;19.460;2022-08-21T00:51:05;18.07;;;7.93;;
18738;SDS011;9498;51.862;19.460;2022-08-21T00:53:34;16.83;;;8.33;;
18738;SDS011;9498;51.862;19.460;2022-08-21T00:56:03;15.53;;;8.33;;
18738;SDS011;9498;51.862;19.460;2022-08-21T00:58:33;17.67;;;8.27;;
18738;SDS011;9498;51.862;19.460;2022-08-21T01:01:02;21.43;;;8.40;;
18738;SDS011;9498;51.862;19.460;2022-08-21T01:03:30;17.97;;;8.50;;
18738;SDS011;9498;51.862;19.460;2022-08-21T01:05:57;28.37;;;8.80;;
18738;SDS011;9498;51.862;19.460;2022-08-21T01:08:24;18.27;;;8.27;;
18738;SDS011;9498;51.862;19.460;2022-08-21T01:10:52;17.73;;;8.87;;
18738;SDS011;9498;51.862;19.460;2022-08-21T01:13:20;21.77;;;9.20;;
18738;SDS011;9498;51.862;19.460;2022-08-21T01:15:51;17.10;;;8.57;;
18738;SDS011;9498;51.862;19.460;2022-08-21T01:18:20;22.10;;;9.73;;
18738;SDS011;9498;51.862;19.460;2022-08-21T01:21:02;17.73;;;8.43;;
18738;SDS011;9498;51.862;19.460;2022-08-21T01:23:30;19.50;;;8.77;;
18738;SDS011;9498;51.862;19.460;2022-08-21T01:25:57;18.87;;;8.97;;
18738;SDS011;9498;51.862;19.460;2022-08-21T01:28:24;24.47;;;9.73;;
18738;SDS011;9498;51.862;19.460;2022-08-21T01:30:55;20.43;;;8.47;;
18738;SDS011;9498;51.862;19.460;2022-08-21T01:33:22;19.43;;;8.73;;
18738;SDS011;9498;51.862;19.460;2022-08-21T01:35:51;17.60;;;8.47;;
18738;SDS011;9498;51.862;19.460;2022-08-21T01:38:19;29.23;;;9.60;;
18738;SDS011;9498;51.862;19.460;2022-08-21T01:40:47;19.03;;;8.20;;
18738;SDS011;9498;51.862;19.460;2022-08-21T01:43:14;17.90;;;8.10;;
18738;SDS011;9498;51.862;19.460;2022-08-21T01:45:41;22.80;;;8.07;;
18738;SDS011;9498;51.862;19.460;2022-08-21T01:48:09;16.70;;;8.23;;
18738;SDS011;9498;51.862;19.460;2022-08-21T01:50:36;22.73;;;10.27;;
18738;SDS011;9498;51.862;19.460;2022-08-21T01:53:03;22.83;;;10.13;;
18738;SDS011;9498;51.862;19.460;2022-08-21T01:55:32;21.33;;;9.50;;
18738;SDS011;9498;51.862;19.460;2022-08-21T01:58:00;24.40;;;10.70;;
18738;SDS011;9498;51.862;19.460;2022-08-21T02:00:27;22.00;;;9.60;;
18738;SDS011;9498;51.862;19.460;2022-08-21T02:02:54;21.80;;;9.63;;
18738;SDS011;9498;51.862;19.460;2022-08-21T02:05:22;25.97;;;10.23;;
18738;SDS011;9498;51.862;19.460;2022-08-21T02:07:50;22.67;;;10.90;;
18738;SDS011;9498;51.862;19.460;2022-08-21T02:10:18;26.57;;;11.77;;
18738;SDS011;9498;51.862;19.460;2022-08-21T02:12:47;21.87;;;11.47;;
18738;SDS011;9498;51.862;19.460;2022-08-21T02:15:14;20.73;;;10.97;;
18738;SDS011;9498;51.862;19.460;2022-08-21T02:17:43;23.47;;;11.50;;
18738;SDS011;9498;51.862;19.460;2022-08-21T02:20:14;26.57;;;11.57;;
18738;SDS011;9498;51.862;19.460;2022-08-21T02:22:42;28.80;;;12.03;;
18738;SDS011;9498;51.862;19.460;2022-08-21T02:25:11;25.13;;;12.07;;
18738;SDS011;9498;51.862;19.460;2022-08-21T02:27:39;22.47;;;11.60;;
18738;SDS011;9498;51.862;19.460;2022-08-21T02:30:08;19.93;;;10.43;;
18738;SDS011;9498;51.862;19.460;2022-08-21T02:32:36;28.00;;;10.93;;
18738;SDS011;9498;51.862;19.460;2022-08-21T02:35:04;27.43;;;10.43;;
18738;SDS011;9498;51.862;19.460;2022-08-21T02:37:32;25.13;;;11.80;;
18738;SDS011;9498;51.862;19.460;2022-08-21T02:39:59;27.53;;;11.97;;
18738;SDS011;9498;51.862;19.460;2022-08-21T02:42:26;26.73;;;13.00;;
18738;SDS011;9498;51.862;19.460;2022-08-21T02:44:55;28.37;;;12.80;;
18738;SDS011;9498;51.862;19.460;2022-08-21T02:47:23;28.00;;;12.77;;
18738;SDS011;9498;51.862;19.460;2022-08-21T02:49:51;25.77;;;13.20;;
18738;SDS011;9498;51.862;19.460;2022-08-21T02:52:19;29.17;;;13.83;;
18738;SDS011;9498;51.862;19.460;2022-08-21T02:54:49;32.83;;;15.67;;
18738;SDS011;9498;51.862;19.460;2022-08-21T02:57:16;34.20;;;15.50;;
18738;SDS011;9498;51.862;19.460;2022-08-21T02:59:43;33.23;;;15.27;;
18738;SDS011;9498;51.862;19.460;2022-08-21T03:02:12;36.93;;;16.20;;
18738;SDS011;9498;51.862;19.460;2022-08-21T03:04:41;33.73;;;17.00;;
18738;SDS011;9498;51.862;19.460;2022-08-21T03:07:08;37.33;;;17.23;;
18738;SDS011;9498;51.862;19.460;2022-08-21T03:09:35;38.10;;;18.90;;
18738;SDS011;9498;51.862;19.460;2022-08-21T03:12:03;48.30;;;23.10;;
18738;SDS011;9498;51.862;19.460;2022-08-21T03:14:30;48.33;;;22.53;;
18738;SDS011;9498;51.862;19.460;2022-08-21T03:16:58;54.17;;;24.33;;
18738;SDS011;9498;51.862;19.460;2022-08-21T03:19:25;52.03;;;24.87;;
18738;SDS011;9498;51.862;19.460;2022-08-21T03:21:54;51.07;;;25.63;;
18738;SDS011;9498;51.862;19.460;2022-08-21T03:24:21;52.80;;;25.70;;
18738;SDS011;9498;51.862;19.460;2022-08-21T03:26:49;51.03;;;25.67;;
18738;SDS011;9498;51.862;19.460;2022-08-21T03:29:16;48.07;;;24.20;;
18738;SDS011;9498;51.862;19.460;2022-08-21T03:31:44;52.53;;;24.77;;
18738;SDS011;9498;51.862;19.460;2022-08-21T03:34:11;49.23;;;24.23;;
18738;SDS011;9498;51.862;19.460;2022-08-21T03:36:39;45.97;;;24.63;;
18738;SDS011;9498;51.862;19.460;2022-08-21T03:39:07;42.10;;;23.60;;
18738;SDS011;9498;51.862;19.460;2022-08-21T03:41:34;43.43;;;22.97;;
18738;SDS011;9498;51.862;19.460;2022-08-21T03:44:02;50.47;;;22.93;;
18738;SDS011;9498;51.862;19.460;2022-08-21T03:46:29;39.97;;;21.67;;
18738;SDS011;9498;51.862;19.460;2022-08-21T03:48:57;43.13;;;23.37;;
18738;SDS011;9498;51.862;19.460;2022-08-21T03:51:24;35.23;;;20.93;;
18738;SDS011;9498;51.862;19.460;2022-08-21T03:53:51;37.00;;;20.20;;
18738;SDS011;9498;51.862;19.460;2022-08-21T03:56:20;39.43;;;19.47;;
18738;SDS011;9498;51.862;19.460;2022-08-21T03:58:48;33.63;;;18.87;;
18738;SDS011;9498;51.862;19.460;2022-08-21T04:01:15;28.17;;;17.57;;
18738;SDS011;9498;51.862;19.460;2022-08-21T04:03:43;34.67;;;18.47;;
18738;SDS011;9498;51.862;19.460;2022-08-21T04:06:10;31.87;;;17.70;;
18738;SDS011;9498;51.862;19.460;2022-08-21T04:08:37;31.47;;;16.73;;
18738;SDS011;9498;51.862;19.460;2022-08-21T04:11:08;27.27;;;16.10;;
18738;SDS011;9498;51.862;19.460;2022-08-21T04:13:37;27.70;;;16.50;;
18738;SDS011;9498;51.862;19.460;2022-08-21T04:16:05;25.13;;;15.07;;
18738;SDS011;9498;51.862;19.460;2022-08-21T04:18:33;25.63;;;14.70;;
18738;SDS011;9498;51.862;19.460;2022-08-21T04:21:00;25.17;;;13.97;;
18738;SDS011;9498;51.862;19.460;2022-08-21T04:23:28;23.00;;;14.33;;
18738;SDS011;9498;51.862;19.460;2022-08-21T04:25:56;26.63;;;14.80;;
18738;SDS011;9498;51.862;19.460;2022-08-21T04:28:24;23.60;;;13.53;;
18738;SDS011;9498;51.862;19.460;2022-08-21T04:30:54;22.20;;;13.20;;
18738;SDS011;9498;51.862;19.460;2022-08-21T04:33:22;20.87;;;12.47;;
18738;SDS011;9498;51.862;19.460;2022-08-21T04:35:49;22.13;;;12.37;;
18738;SDS011;9498;51.862;19.460;2022-08-21T04:38:16;18.70;;;11.37;;
18738;SDS011;9498;51.862;19.460;2022-08-21T04:40:44;18.33;;;11.77;;
18738;SDS011;9498;51.862;19.460;2022-08-21T04:43:12;20.93;;;11.60;;
18738;SDS011;9498;51.862;19.460;2022-08-21T04:45:40;17.67;;;12.07;;
18738;SDS011;9498;51.862;19.460;2022-08-21T04:48:09;25.90;;;12.83;;
18738;SDS011;9498;51.862;19.460;2022-08-21T04:50:38;24.37;;;13.10;;
18738;SDS011;9498;51.862;19.460;2022-08-21T04:53:08;24.33;;;14.20;;
18738;SDS011;9498;51.862;19.460;2022-08-21T04:55:36;22.63;;;13.13;;
18738;SDS011;9498;51.862;19.460;2022-08-21T04:58:04;22.17;;;14.13;;
18738;SDS011;9498;51.862;19.460;2022-08-21T05:00:31;23.53;;;15.73;;
18738;SDS011;9498;51.862;19.460;2022-08-21T05:02:59;27.63;;;15.10;;
18738;SDS011;9498;51.862;19.460;2022-08-21T05:05:28;25.83;;;15.93;;
18738;SDS011;9498;51.862;19.460;2022-08-21T05:07:56;30.03;;;15.23;;
18738;SDS011;9498;51.862;19.460;2022-08-21T05:10:24;24.60;;;14.77;;
18738;SDS011;9498;51.862;19.460;2022-08-21T05:12:51;25.47;;;14.93;;
18738;SDS011;9498;51.862;19.460;2022-08-21T05:15:19;26.47;;;15.53;;
18738;SDS011;9498;51.862;19.460;2022-08-21T05:17:46;26.23;;;15.70;;
18738;SDS011;9498;51.862;19.460;2022-08-21T05:20:15;24.10;;;15.60;;
18738;SDS011;9498;51.862;19.460;2022-08-21T05:22:45;28.87;;;15.70;;
18738;SDS011;9498;51.862;19.460;2022-08-21T05:25:12;30.87;;;17.50;;
18738;SDS011;9498;51.862;19.460;2022-08-21T05:27:39;26.90;;;17.27;;
18738;SDS011;9498;51.862;19.460;2022-08-21T05:30:07;30.63;;;18.17;;
18738;SDS011;9498;51.862;19.460;2022-08-21T05:32:35;28.43;;;16.73;;
18738;SDS011;9498;51.862;19.460;2022-08-21T05:35:03;30.93;;;18.80;;
18738;SDS011;9498;51.862;19.460;2022-08-21T05:37:31;29.73;;;18.33;;
18738;SDS011;9498;51.862;19.460;2022-08-21T05:39:59;29.10;;;18.17;;
18738;SDS011;9498;51.862;19.460;2022-08-21T05:42:27;33.00;;;17.83;;
18738;SDS011;9498;51.862;19.460;2022-08-21T05:44:54;28.63;;;18.77;;
18738;SDS011;9498;51.862;19.460;2022-08-21T05:47:21;32.67;;;17.60;;
18738;SDS011;9498;51.862;19.460;2022-08-21T05:49:49;28.77;;;17.10;;
18738;SDS011;9498;51.862;19.460;2022-08-21T05:52:18;30.33;;;18.50;;
18738;SDS011;9498;51.862;19.460;2022-08-21T05:54:45;29.97;;;17.13;;
18738;SDS011;9498;51.862;19.460;2022-08-21T05:57:14;29.37;;;17.43;;
18738;SDS011;9498;51.862;19.460;2022-08-21T05:59:41;29.57;;;16.43;;
18738;SDS011;9498;51.862;19.460;2022-08-21T06:02:08;26.97;;;16.60;;
18738;SDS011;9498;51.862;19.460;2022-08-21T06:04:36;28.70;;;15.20;;
18738;SDS011;9498;51.862;19.460;2022-08-21T06:07:04;25.83;;;14.97;;
18738;SDS011;9498;51.862;19.460;2022-08-21T06:09:31;25.83;;;15.40;;
18738;SDS011;9498;51.862;19.460;2022-08-21T06:12:02;31.63;;;16.83;;
18738;SDS011;9498;51.862;19.460;2022-08-21T06:14:31;23.67;;;15.57;;
18738;SDS011;9498;51.862;19.460;2022-08-21T06:17:01;27.83;;;16.67;;
18738;SDS011;9498;51.862;19.460;2022-08-21T06:19:28;31.53;;;17.07;;
18738;SDS011;9498;51.862;19.460;2022-08-21T06:21:55;30.57;;;18.80;;
18738;SDS011;9498;51.862;19.460;2022-08-21T06:24:23;36.47;;;18.00;;
18738;SDS011;9498;51.862;19.460;2022-08-21T06:26:50;28.87;;;17.40;;
18738;SDS011;9498;51.862;19.460;2022-08-21T06:29:18;29.93;;;16.93;;
18738;SDS011;9498;51.862;19.460;2022-08-21T06:31:48;30.13;;;17.47;;
18738;SDS011;9498;51.862;19.460;2022-08-21T06:34:16;23.57;;;14.83;;
18738;SDS011;9498;51.862;19.460;2022-08-21T06:36:44;25.77;;;15.07;;
18738;SDS011;9498;51.862;19.460;2022-08-21T06:39:11;23.07;;;13.17;;
18738;SDS011;9498;51.862;19.460;2022-08-21T06:41:39;26.80;;;14.20;;
18738;SDS011;9498;51.862;19.460;2022-08-21T06:44:06;22.80;;;14.97;;
18738;SDS011;9498;51.862;19.460;2022-08-21T06:46:33;26.20;;;15.00;;
18738;SDS011;9498;51.862;19.460;2022-08-21T06:49:02;29.50;;;17.17;;
18738;SDS011;9498;51.862;19.460;2022-08-21T06:51:30;25.00;;;15.93;;
18738;SDS011;9498;51.862;19.460;2022-08-21T06:53:57;26.67;;;15.93;;
18738;SDS011;9498;51.862;19.460;2022-08-21T06:56:24;23.63;;;14.80;;
18738;SDS011;9498;51.862;19.460;2022-08-21T06:58:51;20.87;;;13.83;;
18738;SDS011;9498;51.862;19.460;2022-08-21T07:01:19;21.57;;;13.57;;
18738;SDS011;9498;51.862;19.460;2022-08-21T07:03:46;21.43;;;13.70;;
18738;SDS011;9498;51.862;19.460;2022-08-21T07:06:16;24.03;;;14.27;;
18738;SDS011;9498;51.862;19.460;2022-08-21T07:08:43;23.00;;;15.13;;
18738;SDS011;9498;51.862;19.460;2022-08-21T07:11:11;23.43;;;14.07;;
18738;SDS011;9498;51.862;19.460;2022-08-21T07:13:39;19.30;;;12.57;;
18738;SDS011;9498;51.862;19.460;2022-08-21T07:16:07;19.97;;;11.97;;
18738;SDS011;9498;51.862;19.460;2022-08-21T07:18:34;20.60;;;12.37;;
18738;SDS011;9498;51.862;19.460;2022-08-21T07:21:01;23.83;;;12.40;;
18738;SDS011;9498;51.862;19.460;2022-08-21T07:23:31;20.80;;;12.53;;
18738;SDS011;9498;51.862;19.460;2022-08-21T07:25:59;25.93;;;11.23;;
18738;SDS011;9498;51.862;19.460;2022-08-21T07:28:27;23.03;;;12.67;;
18738;SDS011;9498;51.862;19.460;2022-08-21T07:30:55;21.83;;;11.80;;
18738;SDS011;9498;51.862;19.460;2022-08-21T07:33:23;23.10;;;11.57;;
18738;SDS011;9498;51.862;19.460;2022-08-21T07:35:52;18.97;;;11.53;;
18738;SDS011;9498;51.862;19.460;2022-08-21T07:38:20;16.87;;;11.57;;
18738;SDS011;9498;51.862;19.460;2022-08-21T07:40:48;20.83;;;12.17;;
18738;SDS011;9498;51.862;19.460;2022-08-21T07:43:16;16.37;;;11.47;;
18738;SDS011;9498;51.862;19.460;2022-08-21T07:45:43;17.70;;;11.03;;
18738;SDS011;9498;51.862;19.460;2022-08-21T07:48:11;22.53;;;11.13;;
18738;SDS011;9498;51.862;19.460;2022-08-21T07:50:38;18.80;;;11.40;;
18738;SDS011;9498;51.862;19.460;2022-08-21T07:53:06;21.07;;;10.60;;
18738;SDS011;9498;51.862;19.460;2022-08-21T07:55:34;19.37;;;11.20;;
18738;SDS011;9498;51.862;19.460;2022-08-21T07:58:03;18.50;;;10.43;;
18738;SDS011;9498;51.862;19.460;2022-08-21T08:00:30;16.90;;;10.60;;
18738;SDS011;9498;51.862;19.460;2022-08-21T08:02:58;19.10;;;10.50;;
18738;SDS011;9498;51.862;19.460;2022-08-21T08:05:26;14.67;;;9.73;;
18738;SDS011;9498;51.862;19.460;2022-08-21T08:07:54;16.40;;;10.07;;
18738;SDS011;9498;51.862;19.460;2022-08-21T08:10:22;15.47;;;10.00;;
18738;SDS011;9498;51.862;19.460;2022-08-21T08:12:50;18.33;;;9.30;;
18738;SDS011;9498;51.862;19.460;2022-08-21T08:15:22;18.37;;;10.13;;
18738;SDS011;9498;51.862;19.460;2022-08-21T08:17:51;21.27;;;11.00;;
18738;SDS011;9498;51.862;19.460;2022-08-21T08:20:19;17.70;;;10.43;;
18738;SDS011;9498;51.862;19.460;2022-08-21T08:22:48;16.50;;;9.97;;
18738;SDS011;9498;51.862;19.460;2022-08-21T08:25:15;14.43;;;9.97;;
18738;SDS011;9498;51.862;19.460;2022-08-21T08:27:43;18.67;;;10.37;;
18738;SDS011;9498;51.862;19.460;2022-08-21T08:30:11;14.43;;;9.90;;
18738;SDS011;9498;51.862;19.460;2022-08-21T08:32:40;17.20;;;10.57;;
18738;SDS011;9498;51.862;19.460;2022-08-21T08:35:08;17.30;;;10.03;;
18738;SDS011;9498;51.862;19.460;2022-08-21T08:37:36;20.63;;;9.70;;
18738;SDS011;9498;51.862;19.460;2022-08-21T08:40:05;13.00;;;9.03;;
18738;SDS011;9498;51.862;19.460;2022-08-21T08:42:33;18.37;;;9.93;;
18738;SDS011;9498;51.862;19.460;2022-08-21T08:45:03;14.47;;;9.50;;
18738;SDS011;9498;51.862;19.460;2022-08-21T08:47:32;13.60;;;8.70;;
18738;SDS011;9498;51.862;19.460;2022-08-21T08:50:05;16.13;;;9.70;;
18738;SDS011;9498;51.862;19.460;2022-08-21T08:52:33;16.37;;;9.77;;
18738;SDS011;9498;51.862;19.460;2022-08-21T08:55:03;17.93;;;10.80;;
18738;SDS011;9498;51.862;19.460;2022-08-21T08:57:32;14.23;;;8.60;;
18738;SDS011;9498;51.862;19.460;2022-08-21T09:00:00;14.73;;;9.17;;
18738;SDS011;9498;51.862;19.460;2022-08-21T09:02:28;17.80;;;8.87;;
18738;SDS011;9498;51.862;19.460;2022-08-21T09:04:55;14.77;;;8.40;;
18738;SDS011;9498;51.862;19.460;2022-08-21T09:07:28;11.70;;;8.50;;
18738;SDS011;9498;51.862;19.460;2022-08-21T09:10:02;14.47;;;8.93;;
18738;SDS011;9498;51.862;19.460;2022-08-21T09:12:33;15.30;;;9.00;;
18738;SDS011;9498;51.862;19.460;2022-08-21T09:15:06;15.40;;;7.77;;
18738;SDS011;9498;51.862;19.460;2022-08-21T09:17:39;18.40;;;8.07;;
18738;SDS011;9498;51.862;19.460;2022-08-21T09:20:09;13.70;;;8.30;;
18738;SDS011;9498;51.862;19.460;2022-08-21T09:22:44;14.20;;;7.73;;
18738;SDS011;9498;51.862;19.460;2022-08-21T09:25:16;13.97;;;8.10;;
18738;SDS011;9498;51.862;19.460;2022-08-21T09:27:45;12.03;;;7.80;;
18738;SDS011;9498;51.862;19.460;2022-08-21T09:30:13;13.20;;;7.53;;
18738;SDS011;9498;51.862;19.460;2022-08-21T09:32:41;10.93;;;7.37;;
18738;SDS011;9498;51.862;19.460;2022-08-21T09:35:09;13.23;;;7.60;;
18738;SDS011;9498;51.862;19.460;2022-08-21T09:37:47;13.37;;;8.10;;
18738;SDS011;9498;51.862;19.460;2022-08-21T09:40:16;17.80;;;8.27;;
18738;SDS011;9498;51.862;19.460;2022-08-21T09:42:52;12.67;;;7.77;;
18738;SDS011;9498;51.862;19.460;2022-08-21T09:45:20;11.20;;;8.23;;
18738;SDS011;9498;51.862;19.460;2022-08-21T09:47:47;14.67;;;8.67;;
18738;SDS011;9498;51.862;19.460;2022-08-21T09:50:16;13.13;;;8.27;;
18738;SDS011;9498;51.862;19.460;2022-08-21T09:52:46;13.77;;;7.73;;
18738;SDS011;9498;51.862;19.460;2022-08-21T09:55:15;13.90;;;8.03;;
18738;SDS011;9498;51.862;19.460;2022-08-21T09:58:03;24.60;;;8.90;;
18738;SDS011;9498;51.862;19.460;2022-08-21T10:00:31;14.33;;;9.10;;
18738;SDS011;9498;51.862;19.460;2022-08-21T10:03:12;12.10;;;8.43;;
18738;SDS011;9498;51.862;19.460;2022-08-21T10:05:40;12.73;;;8.03;;
18738;SDS011;9498;51.862;19.460;2022-08-21T10:08:18;13.27;;;8.37;;
18738;SDS011;9498;51.862;19.460;2022-08-21T10:10:45;13.87;;;8.23;;
18738;SDS011;9498;51.862;19.460;2022-08-21T10:13:17;11.60;;;7.23;;
18738;SDS011;9498;51.862;19.460;2022-08-21T10:15:47;14.10;;;8.10;;
18738;SDS011;9498;51.862;19.460;2022-08-21T10:18:19;14.73;;;8.53;;
18738;SDS011;9498;51.862;19.460;2022-08-21T10:20:50;10.77;;;7.57;;
18738;SDS011;9498;51.862;19.460;2022-08-21T10:26:11;13.47;;;7.97;;
18738;SDS011;9498;51.862;19.460;2022-08-21T10:28:45;17.33;;;8.27;;
18738;SDS011;9498;51.862;19.460;2022-08-21T10:31:15;12.73;;;8.33;;
18738;SDS011;9498;51.862;19.460;2022-08-21T10:33:46;13.80;;;7.80;;
18738;SDS011;9498;51.862;19.460;2022-08-21T10:36:18;13.77;;;7.50;;
18738;SDS011;9498;51.862;19.460;2022-08-21T10:38:52;12.43;;;7.63;;
18738;SDS011;9498;51.862;19.460;2022-08-21T10:41:24;10.93;;;8.03;;
18738;SDS011;9498;51.862;19.460;2022-08-21T10:43:59;13.23;;;6.73;;
18738;SDS011;9498;51.862;19.460;2022-08-21T10:46:31;11.03;;;6.90;;
18738;SDS011;9498;51.862;19.460;2022-08-21T10:49:07;13.90;;;7.47;;
18738;SDS011;9498;51.862;19.460;2022-08-21T10:51:40;13.23;;;7.00;;
18738;SDS011;9498;51.862;19.460;2022-08-21T10:54:10;13.63;;;7.43;;
18738;SDS011;9498;51.862;19.460;2022-08-21T10:56:41;13.17;;;6.80;;
18738;SDS011;9498;51.862;19.460;2022-08-21T10:59:19;8.80;;;6.20;;
18738;SDS011;9498;51.862;19.460;2022-08-21T11:01:53;11.60;;;6.63;;
18738;SDS011;9498;51.862;19.460;2022-08-21T11:04:23;9.50;;;6.87;;
18738;SDS011;9498;51.862;19.460;2022-08-21T11:06:52;14.57;;;7.70;;
18738;SDS011;9498;51.862;19.460;2022-08-21T11:09:22;10.03;;;6.93;;
18738;SDS011;9498;51.862;19.460;2022-08-21T11:11:54;8.57;;;5.93;;
18738;SDS011;9498;51.862;19.460;2022-08-21T11:14:24;11.57;;;6.50;;
18738;SDS011;9498;51.862;19.460;2022-08-21T11:16:59;9.97;;;5.80;;
18738;SDS011;9498;51.862;19.460;2022-08-21T11:19:29;8.73;;;6.37;;
18738;SDS011;9498;51.862;19.460;2022-08-21T11:21:58;8.63;;;5.63;;
18738;SDS011;9498;51.862;19.460;2022-08-21T11:24:29;11.27;;;6.40;;
18738;SDS011;9498;51.862;19.460;2022-08-21T11:26:59;14.67;;;6.43;;
18738;SDS011;9498;51.862;19.460;2022-08-21T11:29:29;13.70;;;6.40;;
18738;SDS011;9498;51.862;19.460;2022-08-21T11:32:01;8.60;;;5.67;;
18738;SDS011;9498;51.862;19.460;2022-08-21T11:34:36;13.53;;;6.33;;
18738;SDS011;9498;51.862;19.460;2022-08-21T11:37:06;10.77;;;6.40;;
18738;SDS011;9498;51.862;19.460;2022-08-21T11:39:37;13.27;;;6.97;;
18738;SDS011;9498;51.862;19.460;2022-08-21T11:42:12;10.90;;;6.30;;
18738;SDS011;9498;51.862;19.460;2022-08-21T11:44:46;12.67;;;6.40;;
18738;SDS011;9498;51.862;19.460;2022-08-21T11:47:15;13.47;;;6.57;;
18738;SDS011;9498;51.862;19.460;2022-08-21T11:49:53;11.00;;;6.67;;
18738;SDS011;9498;51.862;19.460;2022-08-21T11:52:25;10.50;;;6.33;;
18738;SDS011;9498;51.862;19.460;2022-08-21T11:54:54;9.30;;;6.87;;
18738;SDS011;9498;51.862;19.460;2022-08-21T11:57:26;10.97;;;6.50;;
18738;SDS011;9498;51.862;19.460;2022-08-21T11:59:57;9.20;;;6.00;;
18738;SDS011;9498;51.862;19.460;2022-08-21T12:02:28;10.60;;;6.10;;
18738;SDS011;9498;51.862;19.460;2022-08-21T12:04:57;10.87;;;6.27;;
18738;SDS011;9498;51.862;19.460;2022-08-21T12:07:30;10.63;;;6.20;;
18738;SDS011;9498;51.862;19.460;2022-08-21T12:09:58;10.43;;;6.17;;
18738;SDS011;9498;51.862;19.460;2022-08-21T12:12:28;10.87;;;6.47;;
18738;SDS011;9498;51.862;19.460;2022-08-21T12:15:12;9.73;;;6.93;;
18738;SDS011;9498;51.862;19.460;2022-08-21T12:17:41;9.57;;;6.90;;
18738;SDS011;9498;51.862;19.460;2022-08-21T12:20:32;12.00;;;7.20;;
18738;SDS011;9498;51.862;19.460;2022-08-21T12:23:03;8.73;;;6.20;;
18738;SDS011;9498;51.862;19.460;2022-08-21T12:25:36;12.10;;;6.90;;
18738;SDS011;9498;51.862;19.460;2022-08-21T12:28:07;9.27;;;6.50;;
18738;SDS011;9498;51.862;19.460;2022-08-21T12:30:36;10.10;;;6.67;;
18738;SDS011;9498;51.862;19.460;2022-08-21T12:33:05;9.47;;;6.40;;
18738;SDS011;9498;51.862;19.460;2022-08-21T12:35:33;14.23;;;7.10;;
18738;SDS011;9498;51.862;19.460;2022-08-21T12:38:06;10.97;;;6.87;;
18738;SDS011;9498;51.862;19.460;2022-08-21T12:40:37;10.67;;;6.90;;
18738;SDS011;9498;51.862;19.460;2022-08-21T12:43:11;12.03;;;6.50;;
18738;SDS011;9498;51.862;19.460;2022-08-21T12:45:41;10.63;;;6.80;;
18738;SDS011;9498;51.862;19.460;2022-08-21T12:48:10;8.77;;;6.37;;
18738;SDS011;9498;51.862;19.460;2022-08-21T12:50:40;10.73;;;6.10;;
18738;SDS011;9498;51.862;19.460;2022-08-21T12:53:09;10.17;;;6.43;;
18738;SDS011;9498;51.862;19.460;2022-08-21T12:55:41;8.77;;;6.63;;
18738;SDS011;9498;51.862;19.460;2022-08-21T12:58:17;10.43;;;6.57;;
18738;SDS011;9498;51.862;19.460;2022-08-21T13:00:47;10.73;;;6.40;;
18738;SDS011;9498;51.862;19.460;2022-08-21T13:03:15;12.27;;;6.30;;
18738;SDS011;9498;51.862;19.460;2022-08-21T13:05:43;12.20;;;6.10;;
18738;SDS011;9498;51.862;19.460;2022-08-21T13:08:11;10.33;;;6.10;;
18738;SDS011;9498;51.862;19.460;2022-08-21T13:10:39;7.43;;;5.70;;
18738;SDS011;9498;51.862;19.460;2022-08-21T13:13:08;11.67;;;6.00;;
18738;SDS011;9498;51.862;19.460;2022-08-21T13:15:38;9.60;;;5.87;;
18738;SDS011;9498;51.862;19.460;2022-08-21T13:18:06;8.30;;;5.83;;
18738;SDS011;9498;51.862;19.460;2022-08-21T13:20:35;12.87;;;5.80;;
18738;SDS011;9498;51.862;19.460;2022-08-21T13:23:03;10.93;;;5.90;;
18738;SDS011;9498;51.862;19.460;2022-08-21T13:25:34;8.83;;;5.80;;
18738;SDS011;9498;51.862;19.460;2022-08-21T13:28:04;12.87;;;6.20;;
18738;SDS011;9498;51.862;19.460;2022-08-21T13:30:33;8.13;;;6.10;;
18738;SDS011;9498;51.862;19.460;2022-08-21T13:33:03;11.17;;;6.50;;
18738;SDS011;9498;51.862;19.460;2022-08-21T13:35:34;7.67;;;5.73;;
18738;SDS011;9498;51.862;19.460;2022-08-21T13:38:03;8.30;;;6.00;;
18738;SDS011;9498;51.862;19.460;2022-08-21T13:40:31;8.03;;;5.60;;
18738;SDS011;9498;51.862;19.460;2022-08-21T13:42:59;7.43;;;5.70;;
18738;SDS011;9498;51.862;19.460;2022-08-21T13:45:29;8.73;;;5.60;;
18738;SDS011;9498;51.862;19.460;2022-08-21T13:47:59;6.77;;;5.40;;
18738;SDS011;9498;51.862;19.460;2022-08-21T13:50:28;9.17;;;5.90;;
18738;SDS011;9498;51.862;19.460;2022-08-21T13:52:57;9.87;;;6.07;;
18738;SDS011;9498;51.862;19.460;2022-08-21T13:55:24;12.07;;;5.67;;
18738;SDS011;9498;51.862;19.460;2022-08-21T13:57:59;10.33;;;5.73;;
18738;SDS011;9498;51.862;19.460;2022-08-21T14:00:27;7.23;;;5.37;;
18738;SDS011;9498;51.862;19.460;2022-08-21T14:03:00;7.83;;;5.83;;
18738;SDS011;9498;51.862;19.460;2022-08-21T14:05:32;9.50;;;5.63;;
18738;SDS011;9498;51.862;19.460;2022-08-21T14:08:01;6.80;;;5.07;;
18738;SDS011;9498;51.862;19.460;2022-08-21T14:10:29;11.27;;;5.70;;
18738;SDS011;9498;51.862;19.460;2022-08-21T14:12:58;7.50;;;5.53;;
18738;SDS011;9498;51.862;19.460;2022-08-21T14:15:27;6.53;;;5.47;;
18738;SDS011;9498;51.862;19.460;2022-08-21T14:17:57;9.60;;;5.47;;
18738;SDS011;9498;51.862;19.460;2022-08-21T14:20:35;9.03;;;5.40;;
18738;SDS011;9498;51.862;19.460;2022-08-21T14:23:03;8.43;;;5.63;;
18738;SDS011;9498;51.862;19.460;2022-08-21T14:25:37;10.50;;;5.30;;
18738;SDS011;9498;51.862;19.460;2022-08-21T14:28:08;10.17;;;5.40;;
18738;SDS011;9498;51.862;19.460;2022-08-21T14:30:38;6.27;;;5.03;;
18738;SDS011;9498;51.862;19.460;2022-08-21T14:33:08;8.77;;;5.50;;
18738;SDS011;9498;51.862;19.460;2022-08-21T14:35:37;8.07;;;5.33;;
18738;SDS011;9498;51.862;19.460;2022-08-21T14:38:10;11.00;;;5.93;;
18738;SDS011;9498;51.862;19.460;2022-08-21T14:40:38;10.30;;;5.53;;
18738;SDS011;9498;51.862;19.460;2022-08-21T14:43:05;9.57;;;5.63;;
18738;SDS011;9498;51.862;19.460;2022-08-21T14:45:33;9.53;;;5.90;;